Time;durP1;ratioP1;P1;durP2;ratioP2;P2;SDS_P1;SDS_P2;PMS_P1;PMS_P2;Temp;Humidity;BMP_temperature;BMP_pressure;BME280_temperature;BME280_humidity;BME280_pressure;Samples;Min_cycle;Max_cycle;Signal;HPM_P1;HPM_P2
2022/09/26 08:12:17;;;;;;;3.47;2.20;;;;;;;;;;4974840;28;20210;-91
2022/09/26 08:14:49;;;;;;;2.20;2.00;;;;;;;;;;4972886;28;20213;-92
2022/09/26 08:17:16;;;;;;;2.37;1.93;;;;;;;;;;4973917;28;20373;-92
2022/09/26 08:19:44;;;;;;;2.90;1.70;;;;;;;;;;4974675;28;20219;-91
2022/09/26 08:22:11;;;;;;;3.07;2.00;;;;;;;;;;4974305;28;20681;-92
2022/09/26 08:24:38;;;;;;;2.17;1.90;;;;;;;;;;4974411;28;20212;-92
2022/09/26 08:27:06;;;;;;;1.70;1.40;;;;;;;;;;4973801;28;20729;-91
2022/09/26 08:29:34;;;;;;;2.23;1.70;;;;;;;;;;4974491;28;20212;-92
2022/09/26 08:32:03;;;;;;;2.03;1.83;;;;;;;;;;4973990;28;20213;-92
2022/09/26 08:34:33;;;;;;;5.23;1.77;;;;;;;;;;4974283;28;20216;-91
2022/09/26 08:37:01;;;;;;;2.13;1.90;;;;;;;;;;4974292;28;20260;-92
2022/09/26 08:39:28;;;;;;;4.53;2.10;;;;;;;;;;4974334;28;20213;-91
2022/09/26 08:42:01;;;;;;;1.73;1.57;;;;;;;;;;4974254;28;20216;-92
2022/09/26 08:44:39;;;;;;;2.30;2.10;;;;;;;;;;4974873;28;20296;-92
2022/09/26 08:47:15;;;;;;;4.03;2.00;;;;;;;;;;4974693;28;20242;-92
2022/09/26 08:49:49;;;;;;;1.93;1.63;;;;;;;;;;4974497;28;20208;-92
2022/09/26 08:52:30;;;;;;;2.00;1.87;;;;;;;;;;4974119;28;20208;-92
2022/09/26 08:54:57;;;;;;;2.27;1.70;;;;;;;;;;4972951;28;20223;-93
2022/09/26 08:57:37;;;;;;;2.30;1.60;;;;;;;;;;4973970;28;20212;-90
2022/09/26 09:00:08;;;;;;;2.23;1.60;;;;;;;;;;4973700;28;20204;-91
2022/09/26 09:02:39;;;;;;;2.00;1.60;;;;;;;;;;4973736;28;20268;-91
2022/09/26 09:05:09;;;;;;;2.83;1.53;;;;;;;;;;4973688;28;20215;-92
2022/09/26 09:07:36;;;;;;;2.23;1.43;;;;;;;;;;4973525;28;20212;-92
2022/09/26 09:10:05;;;;;;;2.17;1.37;;;;;;;;;;4973727;28;20315;-92
2022/09/26 09:12:44;;;;;;;1.87;1.43;;;;;;;;;;4973675;28;20228;-91
2022/09/26 09:15:23;;;;;;;1.40;1.30;;;;;;;;;;4973601;28;20274;-91
2022/09/26 09:17:57;;;;;;;5.80;1.60;;;;;;;;;;4973533;28;20220;-93
2022/09/26 09:20:30;;;;;;;3.17;1.57;;;;;;;;;;4974177;28;20291;-91
2022/09/26 09:23:11;;;;;;;3.63;1.50;;;;;;;;;;4975862;28;20694;-90
2022/09/26 09:25:43;;;;;;;1.40;1.30;;;;;;;;;;4978953;28;20227;-90
2022/09/26 09:28:15;;;;;;;2.60;1.50;;;;;;;;;;4992448;28;20204;-92
2022/09/26 09:30:43;;;;;;;4.13;1.70;;;;;;;;;;4992008;28;20229;-92
2022/09/26 09:33:14;;;;;;;1.57;1.30;;;;;;;;;;4991886;28;20216;-91
2022/09/26 09:35:43;;;;;;;1.87;1.47;;;;;;;;;;4991380;28;20236;-90
2022/09/26 09:38:14;;;;;;;3.93;1.60;;;;;;;;;;4991901;28;20296;-92
2022/09/26 09:40:44;;;;;;;2.13;1.93;;;;;;;;;;4992872;28;20577;-91
2022/09/26 09:43:14;;;;;;;5.10;2.00;;;;;;;;;;4992447;28;20214;-91
2022/09/26 09:45:45;;;;;;;2.40;1.60;;;;;;;;;;4992358;28;20230;-92
2022/09/26 09:48:15;;;;;;;6.07;1.90;;;;;;;;;;4989323;28;20201;-90
2022/09/26 09:50:48;;;;;;;3.97;2.10;;;;;;;;;;4972565;28;20235;-92
2022/09/26 09:53:22;;;;;;;2.80;1.90;;;;;;;;;;4973231;28;20205;-92
2022/09/26 09:55:55;;;;;;;6.47;1.83;;;;;;;;;;4972664;28;20250;-92
2022/09/26 09:58:40;;;;;;;2.60;1.50;;;;;;;;;;4972934;28;20211;-90
2022/09/26 10:01:12;;;;;;;2.83;1.80;;;;;;;;;;4972605;28;20205;-92
2022/09/26 10:03:43;;;;;;;2.73;1.60;;;;;;;;;;4972994;28;20239;-92
2022/09/26 10:06:11;;;;;;;2.77;1.40;;;;;;;;;;4972541;28;20224;-92
2022/09/26 10:08:40;;;;;;;1.93;1.20;;;;;;;;;;4972696;28;20223;-90
2022/09/26 10:11:22;;;;;;;4.03;1.60;;;;;;;;;;4972320;28;20224;-91
2022/09/26 10:13:57;;;;;;;1.50;1.40;;;;;;;;;;4972738;28;20295;-92
2022/09/26 10:16:25;;;;;;;3.23;1.57;;;;;;;;;;4972086;28;20232;-91
2022/09/26 10:18:55;;;;;;;2.13;1.50;;;;;;;;;;4972437;28;20264;-91
2022/09/26 10:21:27;;;;;;;3.20;1.57;;;;;;;;;;4972288;28;20680;-91
2022/09/26 10:23:54;;;;;;;2.07;1.40;;;;;;;;;;4972604;28;20211;-89
2022/09/26 10:26:24;;;;;;;3.80;1.60;;;;;;;;;;4972155;28;20242;-91
2022/09/26 10:28:54;;;;;;;5.20;1.47;;;;;;;;;;4972616;28;20295;-92
2022/09/26 10:31:28;;;;;;;2.53;1.30;;;;;;;;;;4976843;28;20274;-91
2022/09/26 10:33:59;;;;;;;1.40;1.30;;;;;;;;;;4991888;28;20227;-91
2022/09/26 10:36:30;;;;;;;1.30;1.30;;;;;;;;;;4991608;28;20747;-92
2022/09/26 10:41:57;;;;;;;2.27;1.30;;;;;;;;;;4950457;29;20201;-92
2022/09/26 10:44:26;;;;;;;4.33;1.50;;;;;;;;;;4982346;28;20678;-93
2022/09/26 10:46:56;;;;;;;1.63;1.40;;;;;;;;;;4991279;28;20232;-90
2022/09/26 10:49:29;;;;;;;2.47;1.40;;;;;;;;;;4991182;28;20628;-93
2022/09/26 10:52:00;;;;;;;1.73;1.30;;;;;;;;;;4991364;28;20223;-92
2022/09/26 10:54:41;;;;;;;1.70;1.40;;;;;;;;;;4991601;28;20203;-93
2022/09/26 10:57:18;;;;;;;1.33;1.20;;;;;;;;;;4991347;28;20231;-92
2022/09/26 10:59:47;;;;;;;1.90;1.10;;;;;;;;;;4991148;28;20583;-94
2022/09/26 11:02:20;;;;;;;1.37;1.27;;;;;;;;;;4991919;28;20200;-92
2022/09/26 11:07:40;;;;;;;1.27;1.17;;;;;;;;;;4991261;28;20218;-92
2022/09/26 11:10:09;;;;;;;2.20;1.20;;;;;;;;;;4991618;28;20216;-90
2022/09/26 11:12:38;;;;;;;2.03;1.20;;;;;;;;;;4991102;28;20220;-91
2022/09/26 11:15:07;;;;;;;2.80;1.33;;;;;;;;;;4991148;28;20298;-91
2022/09/26 11:17:45;;;;;;;3.27;1.30;;;;;;;;;;4991024;28;20299;-92
2022/09/26 11:20:19;;;;;;;1.63;1.10;;;;;;;;;;4976588;28;20208;-93
2022/09/26 11:22:50;;;;;;;1.43;1.10;;;;;;;;;;4976473;28;20208;-91
2022/09/26 11:25:21;;;;;;;1.83;0.83;;;;;;;;;;4979133;28;20220;-90
2022/09/26 11:27:50;;;;;;;2.33;1.60;;;;;;;;;;4994839;28;20212;-90
2022/09/26 11:30:19;;;;;;;3.40;1.27;;;;;;;;;;4995051;28;20211;-90
2022/09/26 11:32:49;;;;;;;1.60;1.00;;;;;;;;;;4959857;28;20279;-92
2022/09/26 11:35:20;;;;;;;1.13;0.90;;;;;;;;;;4956457;28;20239;-92
2022/09/26 11:38:04;;;;;;;4.00;1.10;;;;;;;;;;4956181;28;20213;-93
2022/09/26 11:40:38;;;;;;;1.07;1.00;;;;;;;;;;4955801;29;20202;-92
2022/09/26 11:43:23;;;;;;;2.20;1.20;;;;;;;;;;4959259;28;20224;-91
2022/09/26 11:46:02;;;;;;;1.77;1.00;;;;;;;;;;4979029;28;20250;-91
2022/09/26 11:48:41;;;;;;;1.37;1.07;;;;;;;;;;4975790;28;20223;-91
2022/09/26 11:51:14;;;;;;;1.00;1.00;;;;;;;;;;4993234;28;20339;-92
2022/09/26 11:53:56;;;;;;;0.87;0.87;;;;;;;;;;4994614;28;20212;-92
2022/09/26 11:56:34;;;;;;;1.23;0.70;;;;;;;;;;4992356;28;20734;-90
2022/09/26 11:59:06;;;;;;;2.30;0.70;;;;;;;;;;4995137;28;20223;-91
2022/09/26 12:01:38;;;;;;;1.00;0.50;;;;;;;;;;4988573;28;20296;-91
2022/09/26 12:04:23;;;;;;;0.43;0.43;;;;;;;;;;4976218;28;20208;-93
2022/09/26 12:06:55;;;;;;;0.43;0.40;;;;;;;;;;4975543;28;20287;-91
2022/09/26 12:09:44;;;;;;;0.40;0.40;;;;;;;;;;4975538;28;20211;-93
2022/09/26 12:12:14;;;;;;;0.40;0.40;;;;;;;;;;4975989;28;20228;-93
2022/09/26 12:14:49;;;;;;;1.37;0.60;;;;;;;;;;4976210;28;20210;-93
2022/09/26 12:17:20;;;;;;;0.60;0.60;;;;;;;;;;4977404;28;20208;-91
2022/09/26 12:19:52;;;;;;;2.13;0.43;;;;;;;;;;4977141;28;20227;-91
2022/09/26 12:22:31;;;;;;;0.40;0.40;;;;;;;;;;4976517;28;20288;-93
2022/09/26 12:25:07;;;;;;;0.70;0.53;;;;;;;;;;4975581;28;20259;-92
2022/09/26 12:27:42;;;;;;;0.60;0.60;;;;;;;;;;4976041;28;20344;-92
2022/09/26 12:30:11;;;;;;;0.70;0.63;;;;;;;;;;4974214;28;20204;-93
2022/09/26 12:32:47;;;;;;;0.67;0.63;;;;;;;;;;4974153;28;20688;-93
2022/09/26 12:35:22;;;;;;;1.43;0.90;;;;;;;;;;4974877;28;20263;-91
2022/09/26 12:38:07;;;;;;;0.60;0.60;;;;;;;;;;4976212;28;20312;-93
2022/09/26 12:40:38;;;;;;;1.57;0.70;;;;;;;;;;4974037;28;20223;-90
2022/09/26 12:43:20;;;;;;;1.03;0.93;;;;;;;;;;4975738;28;20201;-92
2022/09/26 12:45:57;;;;;;;0.67;0.50;;;;;;;;;;4974303;28;20311;-92
2022/09/26 12:48:31;;;;;;;3.37;1.30;;;;;;;;;;4974708;28;20207;-90
2022/09/26 12:51:06;;;;;;;0.70;0.70;;;;;;;;;;4991379;28;20598;-94
2022/09/26 12:53:49;;;;;;;1.20;0.97;;;;;;;;;;4993944;28;20210;-92
2022/09/26 12:56:22;;;;;;;0.60;0.57;;;;;;;;;;4993536;28;20294;-94
2022/09/26 12:59:05;;;;;;;0.83;0.53;;;;;;;;;;4993828;28;20223;-90
2022/09/26 13:01:46;;;;;;;1.23;0.63;;;;;;;;;;4993786;28;20215;-93
2022/09/26 13:04:30;;;;;;;0.77;0.70;;;;;;;;;;4983047;28;20208;-91
2022/09/26 13:07:06;;;;;;;0.60;0.50;;;;;;;;;;4973985;28;20645;-91
2022/09/26 13:09:42;;;;;;;0.60;0.60;;;;;;;;;;4973537;28;20287;-93
2022/09/26 13:12:17;;;;;;;0.93;0.50;;;;;;;;;;4973924;28;20227;-91
2022/09/26 13:14:56;;;;;;;0.73;0.50;;;;;;;;;;4973910;28;20283;-90
2022/09/26 13:17:25;;;;;;;0.87;0.50;;;;;;;;;;4973750;28;20205;-91
2022/09/26 13:19:55;;;;;;;0.60;0.60;;;;;;;;;;4974647;28;20232;-92
2022/09/26 13:22:27;;;;;;;0.43;0.40;;;;;;;;;;4975517;28;20209;-93
2022/09/26 13:24:57;;;;;;;0.87;0.73;;;;;;;;;;4975404;28;20215;-93
2022/09/26 13:27:28;;;;;;;1.00;1.00;;;;;;;;;;4975936;28;20273;-91
2022/09/26 13:30:01;;;;;;;0.77;0.53;;;;;;;;;;4982091;28;20207;-91
2022/09/26 13:32:34;;;;;;;1.70;0.90;;;;;;;;;;4983179;28;20228;-93
2022/09/26 13:35:20;;;;;;;1.03;0.50;;;;;;;;;;4992863;28;20204;-91
2022/09/26 13:38:14;;;;;;;0.50;0.47;;;;;;;;;;4977889;28;20252;-93
2022/09/26 13:40:49;;;;;;;4.93;0.97;;;;;;;;;;4975811;28;20205;-91
2022/09/26 13:43:32;;;;;;;1.07;0.43;;;;;;;;;;4976788;28;20199;-95
2022/09/26 13:46:04;;;;;;;0.97;0.50;;;;;;;;;;4976056;28;20243;-92
2022/09/26 13:48:38;;;;;;;0.50;0.50;;;;;;;;;;4977420;28;20213;-94
2022/09/26 13:51:09;;;;;;;0.33;0.33;;;;;;;;;;4984712;28;20227;-94
2022/09/26 13:53:40;;;;;;;0.93;0.47;;;;;;;;;;4993039;28;20200;-92
2022/09/26 13:56:23;;;;;;;0.83;0.53;;;;;;;;;;4996377;28;20227;-93
2022/09/26 13:59:05;;;;;;;0.50;0.50;;;;;;;;;;4990622;28;20207;-93
2022/09/26 14:01:33;;;;;;;1.10;0.50;;;;;;;;;;4977113;28;20633;-93
2022/09/26 14:04:18;;;;;;;0.63;0.63;;;;;;;;;;4975087;28;20661;-93
2022/09/26 14:09:22;;;;;;;0.40;0.40;;;;;;;;;;4974007;28;20283;-93
2022/09/26 14:09:55;;;;;;;0.70;0.50;;;;;;;;;;4975027;28;20267;-94
2022/09/26 14:12:33;;;;;;;0.43;0.43;;;;;;;;;;4975717;28;20311;-94
2022/09/26 14:15:15;;;;;;;0.40;0.40;;;;;;;;;;4974381;28;20227;-93
2022/09/26 14:18:00;;;;;;;1.00;0.53;;;;;;;;;;4974104;28;20283;-93
2022/09/26 14:20:30;;;;;;;1.90;0.70;;;;;;;;;;4974571;28;20226;-91
2022/09/26 14:22:58;;;;;;;0.70;0.70;;;;;;;;;;4972453;28;20212;-90
2022/09/26 14:25:40;;;;;;;0.63;0.40;;;;;;;;;;4972641;28;20232;-90
2022/09/26 14:28:18;;;;;;;0.50;0.50;;;;;;;;;;4972422;28;20300;-93
2022/09/26 14:31:00;;;;;;;0.40;0.40;;;;;;;;;;4992870;28;20215;-92
2022/09/26 14:33:29;;;;;;;1.67;0.70;;;;;;;;;;4974518;28;20217;-92
2022/09/26 14:36:11;;;;;;;40.97;34.63;;;;;;;;;;4974340;28;20234;-95
2022/09/26 14:38:40;;;;;;;0.87;0.60;;;;;;;;;;4982752;28;20218;-93
2022/09/26 14:41:17;;;;;;;0.63;0.50;;;;;;;;;;4969505;28;20220;-93
2022/09/26 14:43:48;;;;;;;0.40;0.40;;;;;;;;;;4984738;28;20235;-93
2022/09/26 14:46:24;;;;;;;1.50;0.73;;;;;;;;;;4992790;28;20216;-92
2022/09/26 14:49:00;;;;;;;1.80;0.50;;;;;;;;;;4975123;28;20682;-91
2022/09/26 14:51:29;;;;;;;0.80;0.80;;;;;;;;;;4978254;28;20196;-92
2022/09/26 14:53:59;;;;;;;2.40;0.60;;;;;;;;;;4990098;28;20236;-91
2022/09/26 14:56:39;;;;;;;3.03;0.70;;;;;;;;;;4996274;28;20232;-91
2022/09/26 14:59:28;;;;;;;0.80;0.70;;;;;;;;;;4986107;28;20354;-93
2022/09/26 15:02:11;;;;;;;0.80;0.80;;;;;;;;;;4967078;28;20270;-90
2022/09/26 15:04:40;;;;;;;0.80;0.80;;;;;;;;;;4957428;28;20304;-95
2022/09/26 15:07:12;;;;;;;0.90;0.70;;;;;;;;;;4971406;28;20247;-91
2022/09/26 15:09:40;;;;;;;1.13;0.60;;;;;;;;;;4976507;28;20246;-93
2022/09/26 15:12:09;;;;;;;0.60;0.60;;;;;;;;;;4978169;28;20226;-91
2022/09/26 15:14:39;;;;;;;0.70;0.70;;;;;;;;;;4976032;28;20236;-90
2022/09/26 15:17:08;;;;;;;0.50;0.50;;;;;;;;;;4978240;28;20240;-92
2022/09/26 15:19:37;;;;;;;0.70;0.70;;;;;;;;;;4977727;28;20592;-91
2022/09/26 15:22:12;;;;;;;0.60;0.60;;;;;;;;;;4978381;28;20298;-93
2022/09/26 15:24:39;;;;;;;1.87;0.80;;;;;;;;;;4976398;28;20223;-90
2022/09/26 15:27:09;;;;;;;1.57;0.40;;;;;;;;;;4991007;28;20587;-93
2022/09/26 15:29:45;;;;;;;2.43;0.50;;;;;;;;;;4995691;28;20222;-93
2022/09/26 15:32:18;;;;;;;2.87;0.67;;;;;;;;;;4993884;28;20221;-92
2022/09/26 15:34:46;;;;;;;0.50;0.50;;;;;;;;;;4975694;28;20223;-92
2022/09/26 15:37:18;;;;;;;0.67;0.60;;;;;;;;;;4994945;28;20234;-94
2022/09/26 15:39:45;;;;;;;0.50;0.50;;;;;;;;;;4995195;28;20207;-93
2022/09/26 15:45:16;;;;;;;0.40;0.40;;;;;;;;;;4995158;28;20299;-93
2022/09/26 15:47:43;;;;;;;0.80;0.43;;;;;;;;;;4993220;28;20228;-93
2022/09/26 15:50:12;;;;;;;0.77;0.50;;;;;;;;;;4986893;28;20235;-93
2022/09/26 15:52:42;;;;;;;0.40;0.40;;;;;;;;;;4976884;28;20282;-94
2022/09/26 15:55:13;;;;;;;0.60;0.50;;;;;;;;;;4977697;28;20210;-93
2022/09/26 15:57:40;;;;;;;3.40;0.80;;;;;;;;;;4995675;28;20699;-93
2022/09/26 16:00:08;;;;;;;0.30;0.30;;;;;;;;;;4994930;28;20292;-93
2022/09/26 16:02:35;;;;;;;0.60;0.60;;;;;;;;;;4995469;28;20219;-93
2022/09/26 16:05:03;;;;;;;0.43;0.43;;;;;;;;;;4976882;28;20215;-93
2022/09/26 16:07:30;;;;;;;0.63;0.63;;;;;;;;;;4974936;28;20248;-92
2022/09/26 16:09:59;;;;;;;0.60;0.60;;;;;;;;;;4976022;28;20208;-92
2022/09/26 16:12:28;;;;;;;0.93;0.67;;;;;;;;;;4993895;28;20226;-93
2022/09/26 16:15:00;;;;;;;1.47;0.53;;;;;;;;;;4994736;28;20238;-93
